Terminal Aerodrome Forecast
Issued by NWS

Home | Current Version | Previous Version | Graphics & Text | Print | Product List | Glossary On
Versions: 1 2 3 4 5 6 7 8 9 10 11 12 13 14 15 16 17 18 19 20 21 22 23 24 25 26 27 28 29 30 31 32 33
000
FTUS43 KLOT 180121 AAA
TAFMDW
TAF AMD
KMDW 180121Z 1801/1824 27008KT 3SM -DZ BR SCT003 OVC006
      TEMPO 1801/1803 1 1/2SM -SHRA BR OVC004
     FM180600 27007KT 4SM BR SCT004 OVC006
     FM181600 24012KT P6SM SCT020
     FM182100 22012G17KT P6SM SCT012=

USA.gov is the U.S. government's official web portal to all federal, state and local government web resources and services.